createdAt,value
2022-11-28T00:04:46.215Z,0.1
2022-11-28T00:09:46.121Z,0.2
2022-11-28T00:14:46.107Z,0.2
2022-11-28T00:19:46.218Z,0.2
2022-11-28T00:24:46.073Z,0.2
2022-11-28T00:29:46.093Z,0.1
2022-11-28T00:34:46.132Z,0.2
2022-11-28T00:39:46.137Z,0.2
2022-11-28T00:44:46.101Z,0.3
2022-11-28T00:49:46.128Z,0.2
2022-11-28T00:54:46.112Z,0.3
2022-11-28T00:59:46.157Z,0.2
2022-11-28T01:04:46.115Z,0.2
2022-11-28T01:09:46.334Z,0.2
2022-11-28T01:14:46.179Z,0.3
2022-11-28T01:19:46.647Z,0.2
2022-11-28T01:24:46.169Z,0.2
2022-11-28T01:29:46.138Z,0.2
2022-11-28T01:34:46.164Z,0.2
2022-11-28T01:39:46.118Z,0.2
2022-11-28T01:44:46.091Z,0.3
2022-11-28T01:49:46.127Z,0.2
2022-11-28T01:54:46.095Z,0.3
2022-11-28T01:59:46.183Z,0.2
2022-11-28T02:04:46.141Z,0.2
2022-11-28T02:09:46.144Z,0.2
2022-11-28T02:14:46.239Z,0.2
2022-11-28T02:19:46.082Z,0.3
2022-11-28T02:24:46.148Z,0.2
2022-11-28T02:29:46.215Z,0.2
2022-11-28T02:34:49.294Z,0.2
2022-11-28T02:39:46.185Z,0.1
2022-11-28T02:44:46.111Z,0.2
2022-11-28T02:49:46.105Z,0.2
2022-11-28T02:54:46.099Z,0.2
2022-11-28T02:59:46.162Z,0.3
2022-11-28T03:04:46.170Z,0.2
2022-11-28T03:09:46.114Z,0.2
2022-11-28T03:14:46.115Z,0.2
2022-11-28T03:19:46.120Z,0.2
2022-11-28T03:24:46.088Z,0.2
2022-11-28T03:29:46.136Z,0.2
2022-11-28T03:34:46.210Z,0.2
2022-11-28T03:39:46.089Z,0.1
2022-11-28T03:44:46.103Z,0.3
2022-11-28T03:49:46.150Z,0.2
2022-11-28T03:54:46.146Z,0.2
2022-11-28T03:59:46.143Z,0.2
2022-11-28T04:04:46.134Z,0.1
2022-11-28T04:09:46.127Z,0.2
2022-11-28T04:14:46.129Z,0.2
2022-11-28T04:19:46.164Z,0.2
2022-11-28T04:24:46.073Z,0.2
2022-11-28T04:29:46.122Z,0.2
2022-11-28T04:34:46.192Z,0.1
2022-11-28T04:39:46.147Z,0.2
2022-11-28T04:44:46.160Z,0.2
2022-11-28T04:49:46.109Z,0.2
2022-11-28T04:54:46.100Z,0.3
2022-11-28T04:59:46.236Z,0.2
2022-11-28T05:04:46.140Z,0.2
2022-11-28T05:09:46.141Z,0
2022-11-28T05:14:46.430Z,0.2
2022-11-28T05:19:46.196Z,0.2
2022-11-28T05:24:46.297Z,0.2
2022-11-28T05:29:52.197Z,0.2
2022-11-28T05:34:46.095Z,0.3
2022-11-28T05:39:46.186Z,0.2
2022-11-28T05:44:46.080Z,0.2
2022-11-28T05:49:46.145Z,0.2
2022-11-28T05:54:46.211Z,0.2
2022-11-28T05:59:46.180Z,0.2
2022-11-28T06:04:46.379Z,0.2
2022-11-28T06:09:46.149Z,0.2
2022-11-28T06:14:46.140Z,0.1
2022-11-28T06:19:46.130Z,0.2
2022-11-28T06:24:46.189Z,0.2
2022-11-28T06:29:46.229Z,0.2
2022-11-28T06:34:46.169Z,0.3
2022-11-28T06:39:46.166Z,0.2
2022-11-28T06:44:46.153Z,0.3
2022-11-28T06:49:46.137Z,0.2
2022-11-28T06:54:46.153Z,0.3
2022-11-28T06:59:46.213Z,0.3
2022-11-28T07:04:46.176Z,0.3
2022-11-28T07:09:46.237Z,0.4
2022-11-28T07:14:46.123Z,0.4
2022-11-28T07:19:53.534Z,0.4
2022-11-28T07:24:46.125Z,0.4
2022-11-28T07:29:46.156Z,0.5
2022-11-28T07:34:50.306Z,0.5
2022-11-28T07:39:46.136Z,0.6
2022-11-28T07:44:46.110Z,0.7
2022-11-28T07:49:46.164Z,0.8
2022-11-28T07:54:46.202Z,0.7
2022-11-28T07:59:46.197Z,0.8
2022-11-28T08:04:52.793Z,0.8
2022-11-28T08:09:46.281Z,0.8
2022-11-28T08:14:46.170Z,0.9
2022-11-28T08:19:46.159Z,0.9
2022-11-28T08:24:46.157Z,0.11
2022-11-28T08:29:51.802Z,0.13
2022-11-28T08:34:46.141Z,0.13
2022-11-28T08:39:46.147Z,0.13
2022-11-28T08:44:46.275Z,0.13
2022-11-28T08:49:46.348Z,0.15
2022-11-28T08:54:46.279Z,0.15
2022-11-28T08:59:46.386Z,0.15
2022-11-28T09:04:46.284Z,0.17
2022-11-28T09:09:46.435Z,0.19
2022-11-28T09:14:46.186Z,0.21
2022-11-28T09:19:46.118Z,0.23
2022-11-28T09:24:46.115Z,0.24
2022-11-28T09:29:46.157Z,0.24
2022-11-28T09:34:46.154Z,0.25
2022-11-28T09:40:11.845Z,0.26
2022-11-28T09:44:46.185Z,0.28
2022-11-28T09:49:46.471Z,0.29
2022-11-28T09:54:46.206Z,0.27
2022-11-28T09:59:46.429Z,0.26
2022-11-28T10:04:46.235Z,0.27
2022-11-28T10:09:46.175Z,0.25
2022-11-28T10:14:46.180Z,0.23
2022-11-28T10:19:54.768Z,0.22
2022-11-28T10:24:46.192Z,0.23
2022-11-28T10:29:46.341Z,0.24
2022-11-28T10:34:46.174Z,0.25
2022-11-28T10:39:46.195Z,0.25
2022-11-28T10:44:46.186Z,0.25
2022-11-28T10:49:46.188Z,0.25
2022-11-28T10:54:46.402Z,0.25
2022-11-28T10:59:46.216Z,0.24
2022-11-28T11:04:46.279Z,0.23
2022-11-28T11:09:46.392Z,0.24
2022-11-28T11:14:46.218Z,0.21
2022-11-28T11:19:46.230Z,0.22
2022-11-28T11:24:46.237Z,0.21
2022-11-28T11:29:51.415Z,0.22
2022-11-28T11:34:46.174Z,0.24
2022-11-28T11:39:46.203Z,0.26
2022-11-28T11:44:46.230Z,0.27
2022-11-28T11:49:46.460Z,0.29
2022-11-28T11:54:46.289Z,0.31
2022-11-28T11:59:46.279Z,0.31
2022-11-28T12:04:55.301Z,0.29
2022-11-28T12:09:46.493Z,0.28
2022-11-28T12:14:46.525Z,0.27
2022-11-28T12:19:46.189Z,0.25
2022-11-28T12:24:46.623Z,0.24
2022-11-28T12:29:46.347Z,0.23
2022-11-28T12:34:46.190Z,0.21
2022-11-28T12:39:46.442Z,0.19
2022-11-28T12:44:46.237Z,0.18
2022-11-28T12:49:46.539Z,0.17
2022-11-28T12:54:46.262Z,0.17
2022-11-28T12:59:47.028Z,0.16
2022-11-28T13:04:46.566Z,0.16
2022-11-28T13:09:46.469Z,0.15
2022-11-28T13:14:46.541Z,0.15
2022-11-28T13:19:46.280Z,0.15
2022-11-28T13:24:46.236Z,0.13
2022-11-28T13:29:46.302Z,0.11
2022-11-28T13:34:46.599Z,0.1
2022-11-28T13:39:46.302Z,0.1
2022-11-28T13:44:46.475Z,0.1
2022-11-28T13:49:46.205Z,0.11
2022-11-28T13:54:46.813Z,0.1
2022-11-28T13:59:46.387Z,0.9
2022-11-28T14:04:47.949Z,0.9
2022-11-28T14:09:46.443Z,0.8
2022-11-28T14:14:46.703Z,0.6
2022-11-28T14:19:46.206Z,0.6
2022-11-28T14:24:46.745Z,0.6
2022-11-28T14:29:46.211Z,0.8
2022-11-28T14:34:46.432Z,0.6
2022-11-28T14:39:46.175Z,0.5
2022-11-28T14:44:46.331Z,0.6
2022-11-28T14:49:46.264Z,0.5
2022-11-28T14:54:46.636Z,0.4
2022-11-28T14:59:46.235Z,0.3
2022-11-28T15:04:46.638Z,0.3
2022-11-28T15:09:46.264Z,0.3
2022-11-28T15:14:46.489Z,0.2
2022-11-28T15:19:46.195Z,0.2
2022-11-28T15:24:46.191Z,0.2
2022-11-28T15:29:46.174Z,0.2
2022-11-28T15:34:46.301Z,0.2
2022-11-28T15:39:46.239Z,0.2
2022-11-28T15:44:46.346Z,0.2
2022-11-28T15:49:46.234Z,0.1
2022-11-28T15:54:46.521Z,0.2
2022-11-28T15:59:46.387Z,0.2
2022-11-28T16:04:46.349Z,0.2
2022-11-28T16:09:46.184Z,0.2
2022-11-28T16:14:46.590Z,0.1
2022-11-28T16:19:46.347Z,0.2
2022-11-28T16:24:46.479Z,0.2
2022-11-28T16:29:46.348Z,0.2
2022-11-28T16:34:46.229Z,0.2
2022-11-28T16:39:46.342Z,0.3
2022-11-28T16:44:46.327Z,0.2
2022-11-28T16:49:46.351Z,0.2
2022-11-28T16:54:46.298Z,0.3
2022-11-28T16:59:46.672Z,0.2
2022-11-28T17:04:46.226Z,0.2
2022-11-28T17:09:46.531Z,0.2
2022-11-28T17:14:46.217Z,0.2
2022-11-28T17:19:46.486Z,0.2
2022-11-28T17:24:46.172Z,0.2
2022-11-28T17:29:46.420Z,0.2
2022-11-28T17:34:46.476Z,0.2
2022-11-28T17:39:46.272Z,0.2
2022-11-28T17:44:46.414Z,0.2
2022-11-28T17:49:47.403Z,0.2
2022-11-28T17:54:46.245Z,0.2
2022-11-28T17:59:46.394Z,0.1
2022-11-28T18:04:46.363Z,0.2
2022-11-28T18:09:46.499Z,0.2
2022-11-28T18:14:46.216Z,0.2
2022-11-28T18:19:46.458Z,0.2
2022-11-28T18:24:46.259Z,0.2
2022-11-28T18:29:46.384Z,0.2
2022-11-28T18:34:46.260Z,0.2
2022-11-28T18:39:46.505Z,0.2
2022-11-28T18:44:46.221Z,0.1
2022-11-28T18:49:46.359Z,0.2
2022-11-28T18:54:46.203Z,0.2
2022-11-28T18:59:55.142Z,0.2
2022-11-28T19:04:46.239Z,0.2
2022-11-28T19:09:46.526Z,0.2
2022-11-28T19:14:46.245Z,0.2
2022-11-28T19:19:46.588Z,0.2
2022-11-28T19:24:46.237Z,0.2
2022-11-28T19:29:46.612Z,0.2
2022-11-28T19:34:46.379Z,0.3
2022-11-28T19:39:46.526Z,0.2
2022-11-28T19:44:46.208Z,0.2
2022-11-28T19:49:46.539Z,0.1
2022-11-28T19:54:46.290Z,0.2
2022-11-28T19:59:46.522Z,0.3
2022-11-28T20:04:46.235Z,0.1
2022-11-28T20:09:46.526Z,0.2
2022-11-28T20:14:46.223Z,0.3
2022-11-28T20:19:46.532Z,0.3
2022-11-28T20:24:46.244Z,0.1
2022-11-28T20:29:46.448Z,0.2
2022-11-28T20:34:46.201Z,0.2
2022-11-28T20:39:46.686Z,0.2
2022-11-28T20:44:46.236Z,0.1
2022-11-28T20:49:46.514Z,0.2
2022-11-28T20:54:46.216Z,0.3
2022-11-28T20:59:46.609Z,0.2
2022-11-28T21:04:46.242Z,0.2
2022-11-28T21:09:46.520Z,0.2
2022-11-28T21:14:46.289Z,0.2
2022-11-28T21:19:46.439Z,0.2
2022-11-28T21:24:46.219Z,0.2
2022-11-28T21:29:46.529Z,0.2
2022-11-28T21:34:46.247Z,0.1
2022-11-28T21:39:46.382Z,0.2
2022-11-28T21:44:46.225Z,0.2
2022-11-28T21:49:46.488Z,0.3
2022-11-28T21:54:46.232Z,0.2
2022-11-28T21:59:46.618Z,0.2
2022-11-28T22:04:46.537Z,0.2
2022-11-28T22:09:46.223Z,0.2
2022-11-28T22:14:46.490Z,0.2
2022-11-28T22:19:46.235Z,0.2
2022-11-28T22:24:46.444Z,0.1
2022-11-28T22:29:46.259Z,0.2
2022-11-28T22:34:46.375Z,0.1
2022-11-28T22:39:46.232Z,0.2
2022-11-28T22:44:46.417Z,0.2
2022-11-28T22:49:46.271Z,0.2
2022-11-28T22:54:46.486Z,0.2
2022-11-28T22:59:46.298Z,0.2
2022-11-28T23:04:46.491Z,0.2
2022-11-28T23:09:46.280Z,0.2
2022-11-28T23:14:46.536Z,0.2
2022-11-28T23:19:46.327Z,0.2
2022-11-28T23:24:46.487Z,0.1
2022-11-28T23:29:46.245Z,0.2
2022-11-28T23:34:46.340Z,0.2
2022-11-28T23:39:46.264Z,0.2
2022-11-28T23:44:46.385Z,0.2
2022-11-28T23:49:46.254Z,0.2
2022-11-28T23:54:46.343Z,0.2
2022-11-28T23:59:46.444Z,0.2
